Ashwood, OR (97711)

7:45 PM PST on March 03, 2015 (GMT -0800)
RAWS BOARD HOLLOW OR US | Change Station
CLOSE
Current Station
Personal Weather Station
Location: Ashwood, OR
Elevation: 4187 ft
Nearby Weather Stations

Elev 4187 ft 44.60 °N, 120.68 °W | Updated 31 minutes ago

Clear
Clear
29 °F
Feels Like 25 °F
N
4
Wind Variable Wind from East
Gusts 6.0 mph

Today
High -- | Low -- °F
--% Chance of Precip.
Yesterday
High -- | Low -- °F
Precip. -- in
6:36 AM 5:52 PM
Waxing Gibbous, 98% visible
Pressure 30.19 in
Visibility 10.0 miles
Clouds Clear
Windchill 25 °F
Dew Point 16 °F
Humidity 58%
Rainfall 0.00 in
Snow Depth Not available.
UV 0 out of 12
Pollen 5.00 out of 12
Air Quality Not available.
Flu Activity Not available.
METAR KRDM 040256Z 36003KT 10SM CLR M02/M08 A3012 RMK AO2 SLP221 T10171083 53006

More Conditions Fewer Conditions

Pressure 30.19 in
Visibility 10.0 miles
Clouds Clear
Windchill 25 °F
Dew Point 16 °F
Humidity 58%
Rainfall 0.00 in
Snow Depth Not available.
UV 0 out of 12
Pollen 5.00 out of 12
Air Quality Not available.
Flu Activity Not available.
METAR KRDM 040256Z 36003KT 10SM CLR M02/M08 A3012 RMK AO2 SLP221 T10171083 53006

More Conditions Fewer Conditions

10-Day Weather Forecast

Almanac

Astronomy

Mar. 03, 2015 Rise Set
Actual Time
Civil Twilight
Nautical Twilight
Astronomical Twilight
Moon
Length of Visible Light
Length of Day
Tomorrow will be .
, % of the Moon is Illuminated

Today's Extremes

State Highs State Lows

Community

WunderPhotos

Upload Photos

1,802,379 photos uploaded!

WunderBlogs® & News

Nearby

Air Quality

  Air Quality AQ Index Pollutant
Not available.

Snow Depth

Station Depth Elevation

Earthquake Activity

City Distance Mag. Time & Date
Minimum magnitude displayed is 2.5.

Coastal Water Temperatures

Place Temperature

Nearby Weather Stations